createdAt,value
2019-04-20T00:01:26.296Z,101279.03
2019-04-20T00:03:49.046Z,101273.98
2019-04-20T00:06:15.287Z,101268.70
2019-04-20T00:08:42.707Z,101270.41
2019-04-20T00:11:15.396Z,101277.19
2019-04-20T00:13:45.388Z,101282.61
2019-04-20T00:16:02.026Z,101284.95
2019-04-20T00:18:34.721Z,101271.25
2019-04-20T00:21:03.862Z,101267.59
2019-04-20T00:23:37.947Z,101272.53
2019-04-20T00:26:43.912Z,101275.30
2019-04-20T00:29:07.301Z,101273.22
2019-04-20T00:31:29.712Z,101268.41
2019-04-20T00:33:57.503Z,101268.00
2019-04-20T00:36:11.758Z,101263.17
2019-04-20T00:38:42.611Z,101263.28
2019-04-20T00:41:07.528Z,101251.88
2019-04-20T00:43:34.313Z,101246.69
2019-04-20T00:46:04.885Z,101245.80
2019-04-20T00:48:35.079Z,101257.53
2019-04-20T00:51:06.937Z,101259.19
2019-04-20T00:53:26.204Z,101250.44
2019-04-20T00:55:44.478Z,101245.06
2019-04-20T00:58:20.182Z,101250.86
2019-04-20T01:01:04.120Z,101256.95
2019-04-20T01:03:23.291Z,101252.72
2019-04-20T01:06:02.269Z,101246.25
2019-04-20T01:08:12.848Z,101251.55
2019-04-20T01:10:44.771Z,101248.34
2019-04-20T01:13:13.366Z,101240.73
2019-04-20T01:15:46.269Z,101250.30
2019-04-20T01:18:00.798Z,101256.55
2019-04-20T01:20:27.971Z,101260.48
2019-04-20T01:23:01.887Z,101271.45
2019-04-20T01:25:27.264Z,101271.06
2019-04-20T01:28:19.281Z,101268.59
2019-04-20T01:30:25.286Z,101283.39
2019-04-20T01:32:55.372Z,101277.13
2019-04-20T01:35:26.723Z,101277.08
2019-04-20T01:37:54.681Z,101273.39
2019-04-20T01:40:04.451Z,101286.34
2019-04-20T01:42:29.929Z,101284.98
2019-04-20T01:44:57.077Z,101289.84
2019-04-20T01:47:23.888Z,101285.45
2019-04-20T01:49:57.516Z,101287.77
2019-04-20T01:52:25.563Z,101288.83
2019-04-20T01:55:05.935Z,101278.50
2019-04-20T01:57:24.790Z,101283.78
2019-04-20T01:59:54.305Z,101276.66
2019-04-20T02:02:28.234Z,101284.83
2019-04-20T02:05:05.610Z,101281.95
2019-04-20T02:07:28.507Z,101284.66
2019-04-20T02:09:56.130Z,101280.83
2019-04-20T02:12:22.347Z,101281.56
2019-04-20T02:14:49.656Z,101279.84
2019-04-20T02:17:20.000Z,101280.09
2019-04-20T02:19:58.518Z,101289.42
2019-04-20T02:22:17.106Z,101286.00
2019-04-20T02:24:29.953Z,101290.20
2019-04-20T02:26:56.638Z,101295.25
2019-04-20T02:29:47.458Z,101298.05
2019-04-20T02:32:31.797Z,101298.73
2019-04-20T02:34:57.697Z,101296.97
2019-04-20T02:37:56.635Z,101298.13
2019-04-20T02:40:19.366Z,101291.30
2019-04-20T02:42:47.678Z,101296.73
2019-04-20T02:45:20.439Z,101301.11
2019-04-20T02:47:41.007Z,101295.30
2019-04-20T02:52:32.725Z,101294.47
2019-04-20T02:54:53.669Z,101289.13
2019-04-20T02:57:20.513Z,101303.97
2019-04-20T03:00:03.306Z,101297.97
2019-04-20T03:01:59.397Z,101304.87
2019-04-20T03:04:20.281Z,101301.95
2019-04-20T03:06:53.515Z,101306.06
2019-04-20T03:09:26.359Z,101298.30
2019-04-20T03:11:54.038Z,101297.85
2019-04-20T03:14:13.874Z,101302.98
2019-04-20T03:16:38.732Z,101306.21
2019-04-20T03:19:04.122Z,101307.00
2019-04-20T03:21:37.989Z,101307.20
2019-04-20T03:24:11.727Z,101304.84
2019-04-20T03:26:47.322Z,101303.61
2019-04-20T03:29:15.984Z,101304.17
2019-04-20T03:32:28.498Z,101303.34
2019-04-20T03:34:48.472Z,101300.94
2019-04-20T03:36:55.045Z,101299.83
2019-04-20T03:39:13.617Z,101304.78
2019-04-20T03:41:28.246Z,101301.18
2019-04-20T03:43:47.753Z,101299.80
2019-04-20T03:46:18.838Z,101307.55
2019-04-20T03:49:02.792Z,101303.17
2019-04-20T03:51:35.935Z,101300.70
2019-04-20T03:54:02.662Z,101299.56
2019-04-20T03:56:41.918Z,101300.34
2019-04-20T03:59:08.672Z,101299.39
2019-04-20T04:02:12.419Z,101292.69
2019-04-20T04:04:25.173Z,101292.53
2019-04-20T04:06:34.014Z,101292.51
2019-04-20T04:09:06.416Z,101295.11
2019-04-20T04:11:35.445Z,101297.91
2019-04-20T04:13:46.061Z,101299.52
2019-04-20T04:16:16.422Z,101297.66
2019-04-20T04:18:44.657Z,101295.97
2019-04-20T04:21:12.877Z,101300.52
2019-04-20T04:23:49.015Z,101305.63
2019-04-20T04:26:18.721Z,101302.63
2019-04-20T04:28:41.013Z,101302.78
2019-04-20T04:31:13.418Z,101309.69
2019-04-20T04:33:54.627Z,101303.50
2019-04-20T04:36:01.089Z,101310.05
2019-04-20T04:38:37.419Z,101312.92
2019-04-20T04:41:09.616Z,101316.32
2019-04-20T04:43:25.385Z,101318.55
2019-04-20T04:45:35.244Z,101314.34
2019-04-20T04:48:01.929Z,101323.59
2019-04-20T04:50:31.118Z,101323.91
2019-04-20T04:53:02.782Z,101331.92
2019-04-20T04:55:34.421Z,101332.94
2019-04-20T04:57:47.533Z,101332.45
2019-04-20T05:00:17.808Z,101334.17
2019-04-20T05:02:46.576Z,101333.62
2019-04-20T05:05:35.832Z,101332.13
2019-04-20T05:07:52.130Z,101327.57
2019-04-20T05:10:07.698Z,101328.77
2019-04-20T05:12:35.938Z,101324.28
2019-04-20T05:15:07.978Z,101329.70
2019-04-20T05:17:51.146Z,101327.71
2019-04-20T05:20:15.114Z,101329.58
2019-04-20T05:22:46.662Z,101328.22
2019-04-20T05:25:31.064Z,101324.22
2019-04-20T05:28:03.051Z,101327.17
2019-04-20T05:30:07.698Z,101321.91
2019-04-20T05:32:44.951Z,101325.08
2019-04-20T05:35:24.099Z,101325.80
2019-04-20T05:37:48.739Z,101327.80
2019-04-20T05:40:20.711Z,101337.98
2019-04-20T05:42:59.506Z,101334.08
2019-04-20T05:45:20.643Z,101338.05
2019-04-20T05:47:54.875Z,101334.47
2019-04-20T05:50:16.625Z,101339.97
2019-04-20T05:55:14.703Z,101351.75
2019-04-20T05:57:42.600Z,101345.81
2019-04-20T06:00:12.659Z,101347.53
2019-04-20T06:02:34.818Z,101353.81
2019-04-20T06:05:05.663Z,101343.28
2019-04-20T06:07:29.637Z,101347.23
2019-04-20T06:09:59.891Z,101349.50
2019-04-20T06:12:20.003Z,101354.05
2019-04-20T06:15:04.461Z,101342.39
2019-04-20T06:17:59.443Z,101359.25
2019-04-20T06:20:31.068Z,101349.80
2019-04-20T06:22:57.382Z,101356.78
2019-04-20T06:25:39.564Z,101347.14
2019-04-20T06:27:52.995Z,101353.88
2019-04-20T06:30:13.795Z,101357.78
2019-04-20T06:32:59.447Z,101362.94
2019-04-20T06:35:39.118Z,101358.38
2019-04-20T06:37:54.932Z,101352.23
2019-04-20T06:40:31.923Z,101366.42
2019-04-20T06:42:39.854Z,101367.31
2019-04-20T06:45:14.757Z,101363.66
2019-04-20T06:47:42.799Z,101361.92
2019-04-20T06:50:01.645Z,101366.96
2019-04-20T06:52:27.682Z,101352.58
2019-04-20T06:55:03.375Z,101362.45
2019-04-20T06:57:34.603Z,101358.89
2019-04-20T07:00:01.257Z,101360.45
2019-04-20T07:02:29.941Z,101354.95
2019-04-20T07:04:59.690Z,101361.72
2019-04-20T07:10:04.841Z,101359.88
2019-04-20T07:12:13.035Z,101348.52
2019-04-20T07:14:33.100Z,101346.28
2019-04-20T07:17:24.443Z,101345.97
2019-04-20T07:19:48.688Z,101350.33
2019-04-20T07:22:25.296Z,101346.08
2019-04-20T07:24:55.148Z,101351.44
2019-04-20T07:27:13.573Z,101347.88
2019-04-20T07:29:43.273Z,101346.23
2019-04-20T07:31:57.621Z,101342.82
2019-04-20T07:34:32.424Z,101339.17
2019-04-20T07:37:17.940Z,101336.11
2019-04-20T07:39:27.913Z,101337.45
2019-04-20T07:41:58.641Z,101333.83
2019-04-20T07:44:29.897Z,101338.78
2019-04-20T07:47:06.997Z,101322.34
2019-04-20T07:49:12.718Z,101316.58
2019-04-20T07:51:26.641Z,101326.28
2019-04-20T07:54:19.405Z,101323.20
2019-04-20T07:56:39.365Z,101312.64
2019-04-20T07:58:49.228Z,101321.18
2019-04-20T08:01:38.906Z,101310.68
2019-04-20T08:04:05.600Z,101308.87
2019-04-20T08:06:22.051Z,101322.48
2019-04-20T08:08:57.153Z,101313.09
2019-04-20T08:11:22.852Z,101311.14
2019-04-20T08:13:56.947Z,101310.49
2019-04-20T08:16:32.894Z,101313.70
2019-04-20T08:18:51.312Z,101312.19
2019-04-20T08:21:21.103Z,101303.94
2019-04-20T08:23:47.335Z,101306.31
2019-04-20T08:26:00.743Z,101304.61
2019-04-20T08:28:31.486Z,101315.55
2019-04-20T08:31:14.195Z,101304.85
2019-04-20T08:33:52.744Z,101309.97
2019-04-20T08:36:10.722Z,101304.20
2019-04-20T08:41:02.836Z,101302.17
2019-04-20T08:43:45.132Z,101304.27
2019-04-20T08:45:58.965Z,101299.33
2019-04-20T08:48:30.963Z,101288.75
2019-04-20T08:50:50.708Z,101286.13
2019-04-20T08:53:27.893Z,101287.80
2019-04-20T08:55:43.801Z,101282.91
2019-04-20T08:57:51.748Z,101283.02
2019-04-20T09:00:27.476Z,101285.55
2019-04-20T09:02:52.147Z,101268.98
2019-04-20T09:05:29.448Z,101267.70
2019-04-20T09:07:49.020Z,101281.17
2019-04-20T09:10:28.303Z,101278.46
2019-04-20T09:12:45.040Z,101282.64
2019-04-20T09:14:59.493Z,101272.14
2019-04-20T09:17:35.601Z,101269.23
2019-04-20T09:20:06.269Z,101273.13
2019-04-20T09:22:40.630Z,101272.19
2019-04-20T09:25:27.972Z,101265.92
2019-04-20T09:27:32.384Z,101261.16
2019-04-20T09:30:04.298Z,101271.70
2019-04-20T09:32:36.111Z,101248.64
2019-04-20T09:35:07.796Z,101258.83
2019-04-20T09:37:38.443Z,101251.82
2019-04-20T09:40:16.314Z,101238.71
2019-04-20T09:42:26.177Z,101236.32
2019-04-20T09:44:55.966Z,101233.13
2019-04-20T09:47:28.323Z,101239.28
2019-04-20T09:50:00.163Z,101235.09
2019-04-20T09:52:27.859Z,101221.78
2019-04-20T09:54:57.947Z,101223.23
2019-04-20T09:57:25.325Z,101231.27
2019-04-20T09:59:55.338Z,101220.13
2019-04-20T10:02:08.728Z,101218.51
2019-04-20T10:04:26.940Z,101217.80
2019-04-20T10:06:55.122Z,101214.90
2019-04-20T10:09:27.917Z,101207.52
2019-04-20T10:11:48.767Z,101198.48
2019-04-20T10:14:14.456Z,101192.28
2019-04-20T10:16:41.940Z,101180.53
2019-04-20T10:19:10.491Z,101187.05
2019-04-20T10:21:34.287Z,101185.11
2019-04-20T10:24:01.008Z,101192.08
2019-04-20T10:26:27.758Z,101181.95
2019-04-20T10:28:55.251Z,101181.94
2019-04-20T10:31:22.325Z,101181.08
2019-04-20T10:33:49.281Z,101175.84
2019-04-20T10:36:25.638Z,101179.60
2019-04-20T10:38:51.170Z,101176.06
2019-04-20T10:41:29.662Z,101162.77
2019-04-20T10:43:44.870Z,101158.47
2019-04-20T10:46:11.434Z,101161.24
2019-04-20T10:48:45.294Z,101162.87
2019-04-20T10:51:05.291Z,101149.42
2019-04-20T10:53:32.222Z,101145.31
2019-04-20T10:55:58.459Z,101154.41
2019-04-20T10:58:25.325Z,101132.55
2019-04-20T11:00:51.959Z,101118.61
2019-04-20T11:03:19.737Z,101124.73
2019-04-20T11:05:46.754Z,101119.49
2019-04-20T11:08:12.775Z,101129.62
2019-04-20T11:10:51.057Z,101127.06
2019-04-20T11:13:05.841Z,101115.19
2019-04-20T11:15:32.574Z,101112.30
2019-04-20T11:17:59.604Z,101107.77
2019-04-20T11:20:26.034Z,101101.97
2019-04-20T11:22:52.781Z,101107.65
2019-04-20T11:25:19.937Z,101103.49
2019-04-20T11:27:46.261Z,101104.01
2019-04-20T11:30:14.116Z,101104.48
2019-04-20T11:32:40.226Z,101106.02
2019-04-20T11:35:14.134Z,101100.88
2019-04-20T11:37:35.115Z,101092.97
2019-04-20T11:40:01.370Z,101088.05
2019-04-20T11:42:27.734Z,101075.89
2019-04-20T11:44:54.932Z,101074.52
2019-04-20T11:47:21.712Z,101073.14
2019-04-20T11:49:47.465Z,101065.53
2019-04-20T11:52:16.885Z,101072.45
2019-04-20T11:54:42.174Z,101064.29
2019-04-20T11:57:08.960Z,101057.16
2019-04-20T11:59:34.981Z,101062.62
2019-04-20T12:02:09.154Z,101056.52
2019-04-20T12:04:48.868Z,101058.34
2019-04-20T12:07:06.733Z,101056.56
2019-04-20T12:09:33.450Z,101063.87
2019-04-20T12:12:10.449Z,101060.81
2019-04-20T12:14:25.933Z,101052.23
2019-04-20T12:16:53.360Z,101048.88
2019-04-20T12:19:20.655Z,101048.60
2019-04-20T12:21:47.415Z,101042.38
2019-04-20T12:24:14.220Z,101046.55
2019-04-20T12:26:40.601Z,101036.83
2019-04-20T12:29:07.822Z,101036.88
2019-04-20T12:31:33.507Z,101048.28
2019-04-20T12:34:00.197Z,101037.86
2019-04-20T12:36:26.578Z,101040.19
2019-04-20T12:38:53.325Z,101044.80
2019-04-20T12:41:32.023Z,101043.95
2019-04-20T12:43:47.653Z,101043.81
2019-04-20T12:46:16.343Z,101036.83
2019-04-20T12:48:41.792Z,101041.00
2019-04-20T12:51:07.855Z,101042.48
2019-04-20T12:53:34.927Z,101040.52
2019-04-20T12:56:00.578Z,101031.88
2019-04-20T12:58:28.434Z,101037.61
2019-04-20T13:00:54.347Z,101032.88
2019-04-20T13:03:21.445Z,101026.65
2019-04-20T13:05:47.910Z,101023.63
2019-04-20T13:08:23.159Z,101023.55
2019-04-20T13:10:42.310Z,101005.44
2019-04-20T13:13:14.427Z,101006.39
2019-04-20T13:16:00.527Z,101005.16
2019-04-20T13:18:47.638Z,101000.84
2019-04-20T13:21:13.482Z,100981.27
2019-04-20T13:23:40.644Z,100980.34
2019-04-20T13:26:08.741Z,100990.55
2019-04-20T13:28:34.704Z,100978.99
2019-04-20T13:31:01.677Z,100968.28
2019-04-20T13:33:27.323Z,100964.58
2019-04-20T13:35:54.379Z,100966.73
2019-04-20T13:38:20.658Z,100967.14
2019-04-20T13:40:48.135Z,100969.50
2019-04-20T13:43:14.239Z,100959.86
2019-04-20T13:45:40.976Z,100951.09
2019-04-20T13:48:08.919Z,100950.40
2019-04-20T13:50:35.923Z,100948.19
2019-04-20T13:53:01.247Z,100945.99
2019-04-20T13:55:28.904Z,100936.48
2019-04-20T13:58:00.074Z,100945.98
2019-04-20T14:00:40.910Z,100950.30
2019-04-20T14:03:08.900Z,100925.89
2019-04-20T14:05:35.051Z,100928.52
2019-04-20T14:08:01.136Z,100939.60
2019-04-20T14:10:29.182Z,100924.39
2019-04-20T14:13:01.706Z,100916.86
2019-04-20T14:15:22.830Z,100925.77
2019-04-20T14:17:48.971Z,100914.95
2019-04-20T14:20:17.525Z,100925.02
2019-04-20T14:22:42.933Z,100909.03
2019-04-20T14:25:09.073Z,100915.81
2019-04-20T14:27:35.226Z,100911.48
2019-04-20T14:30:03.363Z,100912.22
2019-04-20T14:32:29.132Z,100897.61
2019-04-20T14:34:56.817Z,100900.52
2019-04-20T14:37:22.677Z,100894.10
2019-04-20T14:39:50.300Z,100895.88
2019-04-20T14:42:26.915Z,100882.93
2019-04-20T14:44:43.658Z,100899.01
2019-04-20T14:47:09.770Z,100890.97
2019-04-20T14:49:36.816Z,100889.17
2019-04-20T14:52:03.195Z,100886.98
2019-04-20T14:54:29.638Z,100890.97
2019-04-20T14:56:56.194Z,100890.05
2019-04-20T14:59:35.873Z,100886.39
2019-04-20T15:02:06.597Z,100880.31
2019-04-20T15:04:33.278Z,100872.75
2019-04-20T15:07:00.278Z,100875.41
2019-04-20T15:09:26.797Z,100875.75
2019-04-20T15:11:54.761Z,100868.39
2019-04-20T15:14:20.723Z,100866.99
2019-04-20T15:16:47.022Z,100869.42
2019-04-20T15:19:19.443Z,100864.58
2019-04-20T15:21:47.552Z,100868.34
2019-04-20T15:24:15.472Z,100868.34
2019-04-20T15:26:42.495Z,100868.57
2019-04-20T15:29:08.418Z,100867.87
2019-04-20T15:31:34.530Z,100869.48
2019-04-20T15:34:01.313Z,100856.92
2019-04-20T15:36:28.479Z,100856.25
2019-04-20T15:38:54.734Z,100848.94
2019-04-20T15:41:21.503Z,100853.36
2019-04-20T15:43:49.117Z,100849.08
2019-04-20T15:46:15.371Z,100842.94
2019-04-20T15:48:41.843Z,100854.76
2019-04-20T15:51:09.842Z,100864.82
2019-04-20T15:53:35.524Z,100862.67
2019-04-20T15:56:04.979Z,100857.42
2019-04-20T15:58:30.163Z,100857.80
2019-04-20T16:00:56.523Z,100850.50
2019-04-20T16:03:31.312Z,100858.19
2019-04-20T16:06:01.204Z,100853.68
2019-04-20T16:08:30.263Z,100849.17
2019-04-20T16:10:57.233Z,100841.98
2019-04-20T16:13:31.360Z,100842.60
2019-04-20T16:15:49.878Z,100836.66
2019-04-20T16:18:16.805Z,100844.28
2019-04-20T16:20:51.659Z,100843.55
2019-04-20T16:23:10.329Z,100845.91
2019-04-20T16:25:43.663Z,100838.24
2019-04-20T16:28:10.095Z,100839.12
2019-04-20T16:30:38.022Z,100833.05
2019-04-20T16:33:03.637Z,100831.44
2019-04-20T16:35:30.478Z,100833.11
2019-04-20T16:37:58.205Z,100826.19
2019-04-20T16:40:25.333Z,100825.03
2019-04-20T16:42:52.136Z,100820.34
2019-04-20T16:45:19.141Z,100820.73
2019-04-20T16:47:46.174Z,100824.28
2019-04-20T16:50:12.997Z,100819.97
2019-04-20T16:52:39.015Z,100833.11
2019-04-20T16:55:06.042Z,100818.75
2019-04-20T16:57:31.969Z,100829.78
2019-04-20T16:59:59.944Z,100819.16
2019-04-20T17:02:26.470Z,100825.35
2019-04-20T17:04:54.813Z,100821.30
2019-04-20T17:07:22.850Z,100825.75
2019-04-20T17:09:49.758Z,100821.62
2019-04-20T17:12:17.686Z,100820.28
2019-04-20T17:14:43.463Z,100823.88
2019-04-20T17:17:11.448Z,100826.70
2019-04-20T17:19:37.650Z,100831.77
2019-04-20T17:22:03.664Z,100833.34
2019-04-20T17:24:31.348Z,100835.45
2019-04-20T17:27:05.337Z,100829.98
2019-04-20T17:29:33.713Z,100832.86
2019-04-20T17:32:08.430Z,100835.34
2019-04-20T17:34:46.967Z,100831.02
2019-04-20T17:37:02.334Z,100834.09
2019-04-20T17:39:41.226Z,100835.84
2019-04-20T17:42:14.685Z,100838.49
2019-04-20T17:44:35.920Z,100840.87
2019-04-20T17:47:00.587Z,100840.58
2019-04-20T17:49:30.609Z,100841.97
2019-04-20T17:52:05.109Z,100841.27
2019-04-20T17:54:25.158Z,100840.34
2019-04-20T17:56:52.156Z,100844.41
2019-04-20T17:59:17.741Z,100843.06
2019-04-20T18:02:20.440Z,100841.55
2019-04-20T18:05:09.793Z,100842.84
2019-04-20T18:07:35.498Z,100850.58
2019-04-20T18:09:58.432Z,100847.02
2019-04-20T18:12:09.787Z,100849.22
2019-04-20T18:14:48.038Z,100842.09
2019-04-20T18:17:17.811Z,100845.29
2019-04-20T18:19:40.834Z,100849.61
2019-04-20T18:22:09.872Z,100849.45
2019-04-20T18:25:08.929Z,100844.91
2019-04-20T18:27:23.941Z,100851.11
2019-04-20T18:29:46.168Z,100855.20
2019-04-20T18:32:05.180Z,100860.37
2019-04-20T18:34:40.412Z,100860.56
2019-04-20T18:37:11.957Z,100858.27
2019-04-20T18:39:41.432Z,100865.41
2019-04-20T18:42:09.986Z,100862.50
2019-04-20T18:44:45.598Z,100864.71
2019-04-20T18:47:18.211Z,100861.92
2019-04-20T18:49:36.014Z,100859.16
2019-04-20T18:51:48.096Z,100872.32
2019-04-20T18:54:20.863Z,100867.10
2019-04-20T18:56:45.790Z,100866.33
2019-04-20T18:59:09.193Z,100867.36
2019-04-20T19:01:38.403Z,100869.97
2019-04-20T19:04:01.791Z,100869.70
2019-04-20T19:06:29.788Z,100871.08
2019-04-20T19:08:56.017Z,100868.83
2019-04-20T19:11:24.990Z,100873.80
2019-04-20T19:13:59.281Z,100875.30
2019-04-20T19:16:37.603Z,100880.55
2019-04-20T19:19:28.571Z,100881.95
2019-04-20T19:21:47.610Z,100885.27
2019-04-20T19:24:16.952Z,100884.22
2019-04-20T19:26:46.685Z,100882.22
2019-04-20T19:29:15.756Z,100880.14
2019-04-20T19:31:44.863Z,100876.00
2019-04-20T19:34:22.735Z,100882.31
2019-04-20T19:36:34.841Z,100878.23
2019-04-20T19:39:12.116Z,100870.81
2019-04-20T19:41:32.123Z,100872.88
2019-04-20T19:44:02.524Z,100874.08
2019-04-20T19:46:44.719Z,100880.50
2019-04-20T19:48:52.682Z,100878.27
2019-04-20T19:51:28.629Z,100878.58
2019-04-20T19:53:58.568Z,100882.02
2019-04-20T19:56:16.944Z,100879.34
2019-04-20T19:58:39.885Z,100877.21
2019-04-20T20:00:57.721Z,100877.42
2019-04-20T20:03:21.969Z,100875.03
2019-04-20T20:05:50.913Z,100875.94
2019-04-20T20:08:20.907Z,100872.56
2019-04-20T20:10:44.151Z,100870.61
2019-04-20T20:13:09.932Z,100867.34
2019-04-20T20:15:38.035Z,100873.45
2019-04-20T20:18:21.531Z,100869.78
2019-04-20T20:20:42.923Z,100866.33
2019-04-20T20:22:58.208Z,100871.61
2019-04-20T20:25:29.112Z,100870.11
2019-04-20T20:27:55.175Z,100877.08
2019-04-20T20:30:25.454Z,100882.20
2019-04-20T20:33:01.286Z,100884.87
2019-04-20T20:35:17.487Z,100885.24
2019-04-20T20:37:44.779Z,100884.28
2019-04-20T20:40:15.817Z,100876.81
2019-04-20T20:42:45.774Z,100883.48
2019-04-20T20:45:09.310Z,100888.72
2019-04-20T20:47:48.494Z,100889.44
2019-04-20T20:50:17.387Z,100890.44
2019-04-20T20:52:32.466Z,100893.83
2019-04-20T20:54:54.100Z,100889.84
2019-04-20T20:57:18.888Z,100893.33
2019-04-20T20:59:51.383Z,100891.71
2019-04-20T21:02:14.575Z,100888.08
2019-04-20T21:04:33.476Z,100887.16
2019-04-20T21:07:00.625Z,100898.20
2019-04-20T21:09:27.197Z,100898.53
2019-04-20T21:12:01.787Z,100898.19
2019-04-20T21:14:26.077Z,100905.21
2019-04-20T21:16:57.519Z,100909.01
2019-04-20T21:19:27.274Z,100911.44
2019-04-20T21:21:49.424Z,100907.34
2019-04-20T21:24:17.799Z,100906.98
2019-04-20T21:26:44.100Z,100913.25
2019-04-20T21:29:10.020Z,100911.11
2019-04-20T21:31:36.621Z,100905.19
2019-04-20T21:34:07.738Z,100907.18
2019-04-20T21:36:31.369Z,100905.05
2019-04-20T21:38:55.924Z,100904.25
2019-04-20T21:41:25.318Z,100901.47
2019-04-20T21:43:49.850Z,100900.56
2019-04-20T21:46:16.584Z,100899.09
2019-04-20T21:48:58.827Z,100898.73
2019-04-20T21:51:25.753Z,100897.05
2019-04-20T21:53:37.811Z,100893.28
2019-04-20T21:56:03.900Z,100896.38
2019-04-20T21:58:35.443Z,100896.22
2019-04-20T22:01:10.920Z,100891.58
2019-04-20T22:03:24.751Z,100891.52
2019-04-20T22:05:52.502Z,100887.22
2019-04-20T22:08:19.743Z,100880.95
2019-04-20T22:10:46.971Z,100879.19
2019-04-20T22:13:12.285Z,100890.33
2019-04-20T22:15:46.581Z,100881.31
2019-04-20T22:18:10.943Z,100891.96
2019-04-20T22:20:46.811Z,100895.47
2019-04-20T22:23:13.315Z,100891.44
2019-04-20T22:25:43.773Z,100895.56
2019-04-20T22:27:55.666Z,100895.66
2019-04-20T22:30:19.930Z,100893.97
2019-04-20T22:32:48.590Z,100891.80
2019-04-20T22:35:15.670Z,100890.92
2019-04-20T22:37:52.074Z,100903.05
2019-04-20T22:40:20.492Z,100916.95
2019-04-20T22:42:49.487Z,100904.38
2019-04-20T22:45:14.205Z,100903.23
2019-04-20T22:47:39.150Z,100897.14
2019-04-20T22:50:20.281Z,100898.74
2019-04-20T22:52:47.743Z,100892.14
2019-04-20T22:55:19.873Z,100891.09
2019-04-20T22:57:50.460Z,100889.93
2019-04-20T22:59:59.672Z,100889.61
2019-04-20T23:02:22.568Z,100883.30
2019-04-20T23:04:46.715Z,100889.65
2019-04-20T23:07:12.807Z,100895.64
2019-04-20T23:09:46.846Z,100888.37
2019-04-20T23:12:10.023Z,100889.23
2019-04-20T23:14:34.209Z,100896.28
2019-04-20T23:16:59.802Z,100911.50
2019-04-20T23:19:34.292Z,100912.55
2019-04-20T23:21:58.971Z,100904.86
2019-04-20T23:24:20.529Z,100905.83
2019-04-20T23:26:47.626Z,100900.64
2019-04-20T23:29:13.439Z,100896.80
2019-04-20T23:31:46.044Z,100893.19
2019-04-20T23:34:12.496Z,100892.18
2019-04-20T23:36:39.047Z,100895.05
2019-04-20T23:39:03.013Z,100899.23
2019-04-20T23:41:28.014Z,100899.20
2019-04-20T23:44:04.919Z,100890.28
2019-04-20T23:46:31.532Z,100898.06
2019-04-20T23:49:06.584Z,100896.95
2019-04-20T23:51:49.888Z,100894.09
2019-04-20T23:54:08.286Z,100893.38
2019-04-20T23:56:24.199Z,100894.45
2019-04-20T23:58:53.446Z,100896.23
